Terminal Aerodrome Forecast
Issued by NWS

Home | Current Version | Previous Version | Text Only | Print | Product List | Glossary On
Versions: 1 2 3 4 5 6 7 8 9 10 11 12 13 14 15 16 17 18 19 20 21 22 23 24 25 26 27 28 29 30 31 32 33 34 35 36 37 38 39 40 41
000
FTUS41 KBOX 191515 AAA
TAFHYA
TAF AMD
KHYA 191515Z 1915/2012 02010G19KT 6SM -SHRA BR OVC003
     FM191900 06016G30KT 4SM -SHRA BR OVC008
     FM200200 06016G31KT 2SM -SHRA BR OVC003
     FM200600 05018G35KT 2SM +SHRA BR OVC008=

USA.gov is the U.S. government's official web portal to all federal, state and local government web resources and services.